createdAt,value
2023-01-18T00:02:02.767Z,99579.70
2023-01-18T00:04:35.219Z,99566.76
2023-01-18T00:07:07.325Z,99562.44
2023-01-18T00:09:39.493Z,99580.29
2023-01-18T00:12:11.677Z,99576.13
2023-01-18T00:14:44.197Z,99580.41
2023-01-18T00:17:17.507Z,99582.20
2023-01-18T00:19:49.519Z,99579.61
2023-01-18T00:22:34.686Z,99581.36
2023-01-18T00:25:06.981Z,99585.59
2023-01-18T00:27:39.921Z,99586.54
2023-01-18T00:30:12.647Z,99584.84
2023-01-18T00:32:45.182Z,99574.49
2023-01-18T00:35:17.396Z,99575.38
2023-01-18T00:37:51.892Z,99571.01
2023-01-18T00:40:26.232Z,99586.54
2023-01-18T00:43:15.000Z,99582.26
2023-01-18T00:45:47.414Z,99585.70
2023-01-18T00:48:19.599Z,99570.92
2023-01-18T00:50:51.526Z,99570.05
2023-01-18T00:53:23.658Z,99571.72
2023-01-18T00:55:56.298Z,99559.83
2023-01-18T00:58:29.104Z,99560.63
2023-01-18T01:01:01.297Z,99563.27
2023-01-18T01:03:35.022Z,99560.84
2023-01-18T01:06:24.845Z,99555.41
2023-01-18T01:08:56.910Z,99558.19
2023-01-18T01:11:29.141Z,99560.13
2023-01-18T01:14:19.191Z,99564.50
2023-01-18T01:17:08.965Z,99554.20
2023-01-18T01:19:58.485Z,99554.23
2023-01-18T01:22:48.367Z,99550.84
2023-01-18T01:25:38.023Z,99553.34
2023-01-18T01:28:10.247Z,99556.11
2023-01-18T01:30:42.528Z,99545.91
2023-01-18T01:33:14.926Z,99563.98
2023-01-18T01:35:47.195Z,99552.00
2023-01-18T01:38:19.234Z,99544.23
2023-01-18T01:41:00.542Z,99550.16
2023-01-18T01:43:41.554Z,99543.31
2023-01-18T01:46:33.132Z,99557.03
2023-01-18T01:49:08.111Z,99570.85
2023-01-18T01:51:43.477Z,99565.66
2023-01-18T01:54:18.320Z,99557.92
2023-01-18T01:56:53.093Z,99557.03
2023-01-18T01:59:25.838Z,99551.73
2023-01-18T02:01:59.380Z,99540.52
2023-01-18T02:04:32.260Z,99547.40
2023-01-18T02:07:04.484Z,99543.77
2023-01-18T02:09:36.630Z,99549.09
2023-01-18T02:12:08.973Z,99543.05
2023-01-18T02:14:41.466Z,99538.73
2023-01-18T02:17:46.548Z,99538.73
2023-01-18T02:20:24.129Z,99546.53
2023-01-18T02:23:27.579Z,99545.34
2023-01-18T02:26:18.852Z,99542.10
2023-01-18T02:29:02.661Z,99552.45
2023-01-18T02:31:37.739Z,99556.80
2023-01-18T02:34:16.631Z,99543.86
2023-01-18T02:37:12.786Z,99543.77
2023-01-18T02:39:54.167Z,99537.63
2023-01-18T02:42:46.828Z,99538.68
2023-01-18T02:45:54.397Z,99538.68
2023-01-18T02:48:28.238Z,99532.61
2023-01-18T02:51:00.399Z,99525.80
2023-01-18T02:53:34.528Z,99531.87
2023-01-18T02:56:21.604Z,99531.78
2023-01-18T02:59:20.526Z,99525.80
2023-01-18T03:02:04.087Z,99528.20
2023-01-18T03:04:39.390Z,99529.16
2023-01-18T03:07:29.641Z,99542.10
2023-01-18T03:10:05.149Z,99545.61
2023-01-18T03:12:52.024Z,99564.59
2023-01-18T03:15:42.318Z,99563.69
2023-01-18T03:18:20.092Z,99567.86
2023-01-18T03:20:57.963Z,99572.92
2023-01-18T03:23:38.412Z,99581.57
2023-01-18T03:26:15.417Z,99578.09
2023-01-18T03:29:07.652Z,99578.95
2023-01-18T03:32:00.914Z,99579.67
2023-01-18T03:34:38.568Z,99577.95
2023-01-18T03:37:13.779Z,99589.96
2023-01-18T03:39:49.405Z,99584.78
2023-01-18T03:42:28.114Z,99583.03
2023-01-18T03:45:03.219Z,99594.90
2023-01-18T03:47:35.680Z,99592.37
2023-01-18T03:50:08.275Z,99603.50
2023-01-18T03:52:45.903Z,99605.23
2023-01-18T03:55:24.078Z,99599.16
2023-01-18T03:58:13.431Z,99600.81
2023-01-18T04:00:45.563Z,99598.97
2023-01-18T04:03:17.582Z,99616.27
2023-01-18T04:05:50.476Z,99601.62
2023-01-18T04:08:22.525Z,99601.59
2023-01-18T04:10:54.956Z,99602.39
2023-01-18T04:13:27.912Z,99601.59
2023-01-18T04:16:00.231Z,99597.27
2023-01-18T04:18:32.441Z,99595.61
2023-01-18T04:21:05.087Z,99597.30
2023-01-18T04:23:37.295Z,99599.00
2023-01-18T04:26:11.780Z,99613.67
2023-01-18T04:28:44.115Z,99621.44
2023-01-18T04:31:16.320Z,99615.40
2023-01-18T04:33:49.889Z,99613.58
2023-01-18T04:36:23.255Z,99616.94
2023-01-18T04:38:56.403Z,99607.38
2023-01-18T04:41:29.736Z,99611.80
2023-01-18T04:44:02.929Z,99616.11
2023-01-18T04:46:35.337Z,99623.91
2023-01-18T04:49:10.186Z,99624.65
2023-01-18T04:51:43.462Z,99629.73
2023-01-18T04:54:19.033Z,99628.02
2023-01-18T04:56:52.109Z,99627.08
2023-01-18T04:59:24.340Z,99626.16
2023-01-18T05:01:56.456Z,99621.91
2023-01-18T05:04:29.201Z,99628.02
2023-01-18T05:07:02.453Z,99627.85
2023-01-18T05:09:35.065Z,99630.41
2023-01-18T05:12:07.938Z,99639.08
2023-01-18T05:14:40.485Z,99648.52
2023-01-18T05:17:26.184Z,99652.70
2023-01-18T05:20:00.538Z,99663.13
2023-01-18T05:22:33.441Z,99657.98
2023-01-18T05:25:10.449Z,99665.75
2023-01-18T05:27:43.115Z,99671.64
2023-01-18T05:30:15.411Z,99664.89
2023-01-18T05:32:47.827Z,99665.81
2023-01-18T05:35:20.507Z,99671.80
2023-01-18T05:37:53.177Z,99664.83
2023-01-18T05:40:25.711Z,99680.34
2023-01-18T05:42:58.661Z,99678.62
2023-01-18T05:45:31.453Z,99666.46
2023-01-18T05:48:04.271Z,99677.62
2023-01-18T05:50:36.943Z,99676.70
2023-01-18T05:53:10.970Z,99675.75
2023-01-18T05:55:43.475Z,99669.34
2023-01-18T05:58:16.382Z,99677.38
2023-01-18T06:00:49.820Z,99667.88
2023-01-18T06:03:22.856Z,99673.06
2023-01-18T06:05:55.624Z,99672.23
2023-01-18T06:08:29.196Z,99667.14
2023-01-18T06:11:02.366Z,99667.14
2023-01-18T06:13:34.730Z,99680.09
2023-01-18T06:16:07.720Z,99686.98
2023-01-18T06:18:41.602Z,99690.48
2023-01-18T06:21:13.337Z,99687.06
2023-01-18T06:23:45.330Z,99699.65
2023-01-18T06:26:18.753Z,99702.46
2023-01-18T06:28:50.962Z,99702.46
2023-01-18T06:31:25.349Z,99711.09
2023-01-18T06:33:57.909Z,99697.25
2023-01-18T06:36:30.341Z,99709.22
2023-01-18T06:39:02.544Z,99711.91
2023-01-18T06:41:35.145Z,99710.17
2023-01-18T06:44:07.810Z,99712.73
2023-01-18T06:46:39.720Z,99702.40
2023-01-18T06:49:12.564Z,99711.93
2023-01-18T06:51:44.904Z,99717.98
2023-01-18T06:54:17.286Z,99724.80
2023-01-18T06:56:49.460Z,99733.34
2023-01-18T06:59:21.923Z,99735.08
2023-01-18T07:01:55.828Z,99738.53
2023-01-18T07:04:29.007Z,99736.86
2023-01-18T07:07:01.575Z,99729.09
2023-01-18T07:09:33.698Z,99729.77
2023-01-18T07:12:06.676Z,99728.10
2023-01-18T07:14:38.778Z,99732.39
2023-01-18T07:17:11.273Z,99740.16
2023-01-18T07:19:45.011Z,99737.51
2023-01-18T07:22:17.945Z,99741.80
2023-01-18T07:24:50.671Z,99740.08
2023-01-18T07:27:22.928Z,99766.70
2023-01-18T07:29:56.184Z,99750.41
2023-01-18T07:32:28.651Z,99746.92
2023-01-18T07:35:00.787Z,99746.92
2023-01-18T07:37:36.138Z,99754.64
2023-01-18T07:40:10.911Z,99752.05
2023-01-18T07:42:43.277Z,99753.68
2023-01-18T07:45:15.997Z,99744.05
2023-01-18T07:47:48.335Z,99747.66
2023-01-18T07:50:22.573Z,99745.94
2023-01-18T07:52:54.252Z,99751.95
2023-01-18T07:55:26.632Z,99750.64
2023-01-18T07:57:59.344Z,99737.00
2023-01-18T08:00:32.389Z,99732.78
2023-01-18T08:03:05.189Z,99727.56
2023-01-18T08:05:37.621Z,99729.29
2023-01-18T08:08:11.719Z,99720.55
2023-01-18T08:10:46.528Z,99718.85
2023-01-18T08:13:19.919Z,99729.19
2023-01-18T08:15:54.281Z,99723.91
2023-01-18T08:18:26.679Z,99720.35
2023-01-18T08:20:59.288Z,99724.58
2023-01-18T08:23:31.784Z,99723.74
2023-01-18T08:26:05.147Z,99734.12
2023-01-18T08:28:38.224Z,99739.91
2023-01-18T08:31:17.073Z,99744.36
2023-01-18T08:33:51.544Z,99744.36
2023-01-18T08:36:26.566Z,99752.02
2023-01-18T08:38:59.795Z,99744.19
2023-01-18T08:41:32.062Z,99744.89
2023-01-18T08:44:04.318Z,99752.70
2023-01-18T08:46:37.116Z,99742.33
2023-01-18T08:49:10.100Z,99744.82
2023-01-18T08:51:42.352Z,99756.03
2023-01-18T08:54:14.652Z,99752.58
2023-01-18T08:56:46.897Z,99742.20
2023-01-18T08:59:20.223Z,99750.70
2023-01-18T09:01:52.626Z,99753.23
2023-01-18T09:04:24.984Z,99747.98
2023-01-18T09:06:57.362Z,99752.34
2023-01-18T09:09:30.839Z,99756.63
2023-01-18T09:12:04.158Z,99755.77
2023-01-18T09:14:37.355Z,99747.88
2023-01-18T09:17:20.912Z,99755.70
2023-01-18T09:19:54.749Z,99752.09
2023-01-18T09:22:27.211Z,99753.72
2023-01-18T09:25:00.343Z,99765.91
2023-01-18T09:27:33.389Z,99766.73
2023-01-18T09:30:06.364Z,99778.47
2023-01-18T09:32:39.308Z,99783.94
2023-01-18T09:35:14.468Z,99780.41
2023-01-18T09:37:48.079Z,99772.66
2023-01-18T09:40:23.064Z,99778.81
2023-01-18T09:42:55.889Z,99774.42
2023-01-18T09:45:35.241Z,99770.81
2023-01-18T09:48:11.317Z,99777.84
2023-01-18T09:50:45.604Z,99776.11
2023-01-18T09:53:26.851Z,99768.29
2023-01-18T09:56:02.879Z,99768.98
2023-01-18T09:58:51.188Z,99770.75
2023-01-18T10:01:26.852Z,99771.58
2023-01-18T10:04:10.639Z,99772.47
2023-01-18T10:06:51.967Z,99768.25
2023-01-18T10:09:30.407Z,99775.94
2023-01-18T10:12:13.554Z,99774.97
2023-01-18T10:14:51.702Z,99790.61
2023-01-18T10:17:28.860Z,99788.85
2023-01-18T10:20:02.540Z,99785.28
2023-01-18T10:22:46.795Z,99784.31
2023-01-18T10:25:31.208Z,99784.17
2023-01-18T10:28:22.336Z,99777.24
2023-01-18T10:31:06.302Z,99785.47
2023-01-18T10:33:40.606Z,99782.30
2023-01-18T10:36:21.396Z,99777.75
2023-01-18T10:38:56.358Z,99782.55
2023-01-18T10:41:31.845Z,99780.92
2023-01-18T10:44:04.394Z,99765.34
2023-01-18T10:46:37.053Z,99770.60
2023-01-18T10:49:14.137Z,99760.29
2023-01-18T10:51:48.865Z,99755.93
2023-01-18T10:54:24.708Z,99767.18
2023-01-18T10:57:05.613Z,99769.70
2023-01-18T10:59:42.369Z,99770.53
2023-01-18T11:02:24.266Z,99769.63
2023-01-18T11:05:02.687Z,99772.23
2023-01-18T11:07:34.827Z,99779.08
2023-01-18T11:10:09.844Z,99774.83
2023-01-18T11:12:48.088Z,99780.92
2023-01-18T11:15:26.394Z,99766.21
2023-01-18T11:18:02.150Z,99772.30
2023-01-18T11:20:37.645Z,99758.42
2023-01-18T11:23:19.677Z,99757.55
2023-01-18T11:26:07.596Z,99755.93
2023-01-18T11:29:00.775Z,99768.91
2023-01-18T11:31:36.599Z,99757.66
2023-01-18T11:34:13.780Z,99752.47
2023-01-18T11:36:47.206Z,99753.41
2023-01-18T11:39:30.782Z,99753.33
2023-01-18T11:42:25.678Z,99750.81
2023-01-18T11:45:10.295Z,99746.52
2023-01-18T11:47:54.780Z,99756.00
2023-01-18T11:50:39.184Z,99748.25
2023-01-18T11:53:18.257Z,99748.28
2023-01-18T11:56:01.066Z,99747.38
2023-01-18T11:58:36.131Z,99745.80
2023-01-18T12:01:15.506Z,99739.73
2023-01-18T12:03:57.333Z,99756.97
2023-01-18T12:06:44.470Z,99760.36
2023-01-18T12:09:37.752Z,99754.34
2023-01-18T12:12:41.786Z,99742.12
2023-01-18T12:15:51.233Z,99743.95
2023-01-18T12:18:55.074Z,99735.27
2023-01-18T12:21:38.703Z,99736.97
2023-01-18T12:24:26.400Z,99743.05
2023-01-18T12:27:01.233Z,99749.19
2023-01-18T12:29:53.162Z,99746.77
2023-01-18T12:32:45.006Z,99753.72
2023-01-18T12:35:28.898Z,99761.58
2023-01-18T12:38:12.120Z,99781.68
2023-01-18T12:41:08.740Z,99780.02
2023-01-18T12:44:06.291Z,99790.43
2023-01-18T12:47:03.754Z,99779.28
2023-01-18T12:49:38.851Z,99787.03
2023-01-18T12:52:19.043Z,99758.46
2023-01-18T12:54:58.187Z,99762.85
2023-01-18T12:57:31.049Z,99762.78
2023-01-18T13:00:10.871Z,99776.66
2023-01-18T13:02:48.325Z,99770.64
2023-01-18T13:05:31.471Z,99780.15
2023-01-18T13:08:06.996Z,99766.25
2023-01-18T13:10:40.054Z,99763.72
2023-01-18T13:13:15.766Z,99773.23
2023-01-18T13:16:10.017Z,99773.30
2023-01-18T13:18:57.200Z,99762.19
2023-01-18T13:21:50.562Z,99762.19
2023-01-18T13:24:31.755Z,99775.99
2023-01-18T13:27:13.691Z,99754.41
2023-01-18T13:29:47.350Z,99768.20
2023-01-18T13:32:27.414Z,99763.88
2023-01-18T13:35:19.534Z,99760.49
2023-01-18T13:37:56.217Z,99762.13
2023-01-18T13:40:34.746Z,99760.45
2023-01-18T13:43:09.569Z,99750.05
2023-01-18T13:45:45.276Z,99755.97
2023-01-18T13:48:37.500Z,99753.38
2023-01-18T13:51:10.269Z,99755.00
2023-01-18T13:53:51.977Z,99742.61
2023-01-18T13:56:29.705Z,99735.14
2023-01-18T13:59:18.619Z,99743.72
2023-01-18T14:01:53.697Z,99768.88
2023-01-18T14:04:34.548Z,99755.13
2023-01-18T14:07:08.814Z,99750.78
2023-01-18T14:09:46.671Z,99739.60
2023-01-18T14:12:22.276Z,99738.63
2023-01-18T14:15:06.889Z,99740.33
2023-01-18T14:17:57.813Z,99730.02
2023-01-18T14:20:37.401Z,99743.83
2023-01-18T14:23:18.425Z,99729.95
2023-01-18T14:25:59.849Z,99724.69
2023-01-18T14:28:49.894Z,99721.99
2023-01-18T14:31:28.493Z,99708.62
2023-01-18T14:34:02.446Z,99711.19
2023-01-18T14:36:37.323Z,99712.08
2023-01-18T14:39:14.319Z,99718.94
2023-01-18T14:41:49.320Z,99711.98
2023-01-18T14:44:24.824Z,99707.58
2023-01-18T14:47:10.710Z,99691.31
2023-01-18T14:49:38.101Z,99700.91
2023-01-18T14:52:13.815Z,99710.46
2023-01-18T14:54:52.868Z,99729.67
2023-01-18T14:57:26.162Z,99720.23
2023-01-18T15:00:07.724Z,99717.84
2023-01-18T15:02:40.551Z,99721.06
2023-01-18T15:05:17.284Z,99733.13
2023-01-18T15:07:54.288Z,99744.34
2023-01-18T15:10:28.235Z,99738.22
2023-01-18T15:13:03.505Z,99726.80
2023-01-18T15:15:38.685Z,99728.45
2023-01-18T15:18:13.709Z,99729.31
2023-01-18T15:20:55.244Z,99723.12
2023-01-18T15:23:30.642Z,99724.13
2023-01-18T15:26:03.743Z,99729.31
2023-01-18T15:28:36.865Z,99730.25
2023-01-18T15:31:18.326Z,99721.49
2023-01-18T15:33:51.167Z,99721.49
2023-01-18T15:36:23.732Z,99730.08
2023-01-18T15:38:57.206Z,99722.17
2023-01-18T15:41:30.910Z,99722.25
2023-01-18T15:44:03.543Z,99726.62
2023-01-18T15:46:39.188Z,99729.35
2023-01-18T15:49:15.104Z,99722.50
2023-01-18T15:51:55.647Z,99725.06
2023-01-18T15:54:30.775Z,99726.00
2023-01-18T15:57:17.382Z,99724.77
2023-01-18T15:59:50.209Z,99731.02
2023-01-18T16:02:24.367Z,99726.83
2023-01-18T16:05:11.495Z,99721.89
2023-01-18T16:07:44.103Z,99723.03
2023-01-18T16:10:27.016Z,99713.48
2023-01-18T16:13:36.269Z,99725.55
2023-01-18T16:16:17.117Z,99726.53
2023-01-18T16:19:13.657Z,99727.50
2023-01-18T16:21:57.902Z,99723.13
2023-01-18T16:24:38.375Z,99713.93
2023-01-18T16:27:13.681Z,99725.30
2023-01-18T16:29:48.916Z,99726.34
2023-01-18T16:32:29.809Z,99734.12
2023-01-18T16:35:11.174Z,99754.93
2023-01-18T16:37:45.365Z,99737.70
2023-01-18T16:40:22.891Z,99742.13
2023-01-18T16:42:59.962Z,99736.11
2023-01-18T16:45:35.461Z,99745.55
2023-01-18T16:48:09.220Z,99739.76
2023-01-18T16:50:43.980Z,99750.47
2023-01-18T16:53:18.851Z,99742.87
2023-01-18T16:55:51.574Z,99737.73
2023-01-18T16:58:24.204Z,99737.60
2023-01-18T17:01:08.121Z,99740.26
2023-01-18T17:03:40.620Z,99740.10
2023-01-18T17:06:21.264Z,99741.06
2023-01-18T17:08:53.999Z,99733.22
2023-01-18T17:11:26.439Z,99725.35
2023-01-18T17:13:58.398Z,99737.48
2023-01-18T17:16:31.035Z,99717.73
2023-01-18T17:19:03.020Z,99733.38
2023-01-18T17:21:35.206Z,99734.30
2023-01-18T17:24:07.586Z,99723.01
2023-01-18T17:26:42.069Z,99734.45
2023-01-18T17:29:19.059Z,99729.36
2023-01-18T17:31:53.157Z,99738.03
2023-01-18T17:34:28.702Z,99740.63
2023-01-18T17:37:00.995Z,99760.39
2023-01-18T17:39:43.656Z,99751.91
2023-01-18T17:42:07.734Z,99742.28
2023-01-18T17:44:40.741Z,99737.97
2023-01-18T17:47:12.454Z,99749.79
2023-01-18T17:49:44.708Z,99737.94
2023-01-18T17:52:16.930Z,99726.00
2023-01-18T17:54:49.303Z,99728.53
2023-01-18T17:57:21.572Z,99725.94
2023-01-18T17:59:55.447Z,99713.05
2023-01-18T18:02:27.920Z,99728.59
2023-01-18T18:05:00.329Z,99722.52
2023-01-18T18:07:32.942Z,99724.27
2023-01-18T18:10:06.706Z,99735.41
2023-01-18T18:12:39.110Z,99737.08
2023-01-18T18:15:11.390Z,99731.05
2023-01-18T18:17:43.387Z,99747.53
2023-01-18T18:20:16.033Z,99720.75
2023-01-18T18:22:48.682Z,99711.87
2023-01-18T18:25:21.157Z,99730.25
2023-01-18T18:27:53.344Z,99709.28
2023-01-18T18:30:25.419Z,99710.48
2023-01-18T18:32:58.461Z,99714.80
2023-01-18T18:35:32.102Z,99700.95
2023-01-18T18:38:04.029Z,99700.02
2023-01-18T18:40:36.450Z,99708.48
2023-01-18T18:43:09.366Z,99698.97
2023-01-18T18:45:41.916Z,99706.78
2023-01-18T18:48:14.017Z,99718.87
2023-01-18T18:50:47.477Z,99710.97
2023-01-18T18:53:24.003Z,99692.09
2023-01-18T18:55:54.910Z,99695.61
2023-01-18T18:58:27.180Z,99693.05
2023-01-18T19:00:59.442Z,99705.09
2023-01-18T19:03:31.667Z,99696.41
2023-01-18T19:06:03.844Z,99683.52
2023-01-18T19:08:35.915Z,99680.96
2023-01-18T19:11:08.561Z,99686.88
2023-01-18T19:13:40.900Z,99687.68
2023-01-18T19:16:13.567Z,99680.03
2023-01-18T19:18:45.629Z,99688.55
2023-01-18T19:21:18.521Z,99673.06
2023-01-18T19:23:50.768Z,99671.36
2023-01-18T19:26:23.100Z,99689.50
2023-01-18T19:28:55.666Z,99682.63
2023-01-18T19:31:29.054Z,99678.34
2023-01-18T19:34:02.175Z,99671.36
2023-01-18T19:36:35.018Z,99667.97
2023-01-18T19:39:14.605Z,99670.63
2023-01-18T19:41:40.799Z,99672.32
2023-01-18T19:44:13.261Z,99668.03
2023-01-18T19:46:45.514Z,99680.25
2023-01-18T19:49:19.264Z,99662.17
2023-01-18T19:51:51.943Z,99665.69
2023-01-18T19:54:24.282Z,99664.89
2023-01-18T19:56:56.281Z,99654.59
2023-01-18T19:59:28.512Z,99641.77
2023-01-18T20:02:01.231Z,99634.86
2023-01-18T20:04:34.083Z,99640.09
2023-01-18T20:07:06.405Z,99640.99
2023-01-18T20:09:43.359Z,99643.45
2023-01-18T20:12:13.541Z,99639.08
2023-01-18T20:14:45.785Z,99647.53
2023-01-18T20:17:18.548Z,99646.84
2023-01-18T20:19:52.374Z,99641.58
2023-01-18T20:22:25.231Z,99642.63
2023-01-18T20:24:58.042Z,99631.59
2023-01-18T20:27:30.068Z,99626.50
2023-01-18T20:30:02.590Z,99629.98
2023-01-18T20:32:34.890Z,99629.21
2023-01-18T20:35:08.060Z,99626.68
2023-01-18T20:37:41.779Z,99628.31
2023-01-18T20:40:14.434Z,99624.12
2023-01-18T20:42:46.783Z,99635.25
2023-01-18T20:45:19.924Z,99639.57
2023-01-18T20:47:52.156Z,99632.60
2023-01-18T20:50:25.156Z,99629.83
2023-01-18T20:52:58.104Z,99623.02
2023-01-18T20:55:30.654Z,99618.70
2023-01-18T20:58:02.715Z,99616.08
2023-01-18T21:00:34.887Z,99608.28
2023-01-18T21:03:07.271Z,99599.52
2023-01-18T21:05:40.713Z,99596.09
2023-01-18T21:08:15.419Z,99610.73
2023-01-18T21:10:48.887Z,99600.34
2023-01-18T21:13:21.126Z,99613.27
2023-01-18T21:16:00.937Z,99595.14
2023-01-18T21:18:33.112Z,99613.02
2023-01-18T21:21:05.579Z,99613.17
2023-01-18T21:23:41.648Z,99591.69
2023-01-18T21:26:14.282Z,99599.36
2023-01-18T21:28:46.528Z,99595.05
2023-01-18T21:31:18.947Z,99583.78
2023-01-18T21:33:51.275Z,99595.84
2023-01-18T21:36:23.522Z,99590.69
2023-01-18T21:38:55.640Z,99588.97
2023-01-18T21:41:45.459Z,99595.08
2023-01-18T21:44:35.249Z,99582.92
2023-01-18T21:47:07.455Z,99594.08
2023-01-18T21:50:11.433Z,99584.65
2023-01-18T21:52:33.541Z,99591.59
2023-01-18T21:55:06.130Z,99581.26
2023-01-18T21:57:38.830Z,99586.14
2023-01-18T22:00:13.104Z,99584.65
2023-01-18T22:02:44.427Z,99576.02
2023-01-18T22:05:16.328Z,99570.47
2023-01-18T22:07:51.246Z,99572.49
2023-01-18T22:10:24.284Z,99580.30
2023-01-18T22:12:56.550Z,99573.42
2023-01-18T22:15:28.634Z,99575.11
2023-01-18T22:18:01.083Z,99567.31
2023-01-18T22:20:33.649Z,99576.74
2023-01-18T22:23:05.765Z,99568.94
2023-01-18T22:25:38.113Z,99564.63
2023-01-18T22:28:11.010Z,99571.27
2023-01-18T22:30:43.315Z,99567.77
2023-01-18T22:33:17.501Z,99566.22
2023-01-18T22:35:49.437Z,99563.62
2023-01-18T22:38:21.625Z,99571.33
2023-01-18T22:41:04.877Z,99561.80
2023-01-18T22:43:37.402Z,99561.73
2023-01-18T22:46:12.023Z,99572.92
2023-01-18T22:48:45.399Z,99561.66
2023-01-18T22:51:19.939Z,99554.75
2023-01-18T22:53:53.465Z,99558.23
2023-01-18T22:56:26.696Z,99562.48
2023-01-18T22:59:00.133Z,99556.48
2023-01-18T23:01:34.304Z,99571.99
2023-01-18T23:04:07.044Z,99572.82
2023-01-18T23:06:48.274Z,99569.02
2023-01-18T23:09:20.511Z,99549.53
2023-01-18T23:11:53.086Z,99560.48
2023-01-18T23:14:43.095Z,99562.48
2023-01-18T23:17:32.768Z,99559.07
2023-01-18T23:20:10.319Z,99549.67
2023-01-18T23:22:42.664Z,99540.86
2023-01-18T23:25:15.344Z,99539.27
2023-01-18T23:27:47.552Z,99532.43
2023-01-18T23:30:20.149Z,99526.42
2023-01-18T23:32:52.169Z,99523.83
2023-01-18T23:35:24.518Z,99525.52
2023-01-18T23:37:57.308Z,99520.34
2023-01-18T23:40:47.494Z,99516.88
2023-01-18T23:43:37.225Z,99509.97
2023-01-18T23:46:32.101Z,99523.83
2023-01-18T23:49:21.170Z,99514.15
2023-01-18T23:52:10.842Z,99503.32
2023-01-18T23:54:43.003Z,99498.56
2023-01-18T23:57:15.557Z,99510.70
2023-01-18T23:59:48.489Z,99481.40
